Time;durP1;ratioP1;P1;durP2;ratioP2;P2;SDS_P1;SDS_P2;PMS_P1;PMS_P2;Temp;Humidity;BMP_temperature;BMP_pressure;BME280_temperature;BME280_humidity;BME280_pressure;Samples;Min_cycle;Max_cycle;Signal;HPM_P1;HPM_P2
2023/03/14 00:00:39;;;;;;;10.10;2.13;;;11.00;99.90;;;10.26;100.00;99366.84;4151128;28;20117;-74
2023/03/14 00:02:41;;;;;;;16.92;2.88;;;11.00;99.90;;;10.35;100.00;99367.53;4151867;28;20034;-74
2023/03/14 00:04:42;;;;;;;9.93;2.55;;;11.00;99.90;;;10.21;100.00;99361.34;4152167;28;20025;-74
2023/03/14 00:06:42;;;;;;;26.50;4.35;;;11.00;99.90;;;10.30;100.00;99372.56;4151146;28;20088;-74
2023/03/14 00:08:44;;;;;;;17.35;3.47;;;11.00;99.90;;;10.32;100.00;99375.81;4151824;28;20566;-74
2023/03/14 00:10:45;;;;;;;14.50;2.28;;;11.00;99.90;;;10.37;100.00;99379.53;4150910;28;20030;-74
2023/03/14 00:12:46;;;;;;;12.25;2.58;;;11.00;99.90;;;10.33;100.00;99377.47;4152342;28;20034;-74
2023/03/14 00:14:47;;;;;;;13.00;2.75;;;11.00;99.90;;;10.30;100.00;99377.84;4152026;28;20057;-74
2023/03/14 00:16:48;;;;;;;10.55;2.10;;;11.00;99.90;;;10.44;100.00;99395.41;4150972;28;20029;-74
2023/03/14 00:18:49;;;;;;;12.88;2.72;;;11.10;99.90;;;10.36;100.00;99400.81;4152335;28;20037;-74
2023/03/14 00:20:50;;;;;;;12.48;2.55;;;11.10;99.90;;;10.40;100.00;99407.34;4151846;28;20026;-74
2023/03/14 00:22:51;;;;;;;12.35;1.75;;;11.10;99.90;;;10.39;100.00;99414.41;4150860;28;20034;-74
2023/03/14 00:24:52;;;;;;;5.38;1.02;;;11.10;99.90;;;10.35;100.00;99420.25;4151868;28;20116;-74
2023/03/14 00:26:53;;;;;;;9.60;2.58;;;11.10;99.90;;;10.32;100.00;99423.28;4152011;28;20486;-74
2023/03/14 00:28:55;;;;;;;10.00;1.90;;;11.10;99.90;;;10.33;100.00;99430.19;4150409;28;20018;-74
2023/03/14 00:30:56;;;;;;;5.95;1.60;;;11.00;99.90;;;10.22;100.00;99428.00;4150249;28;20025;-74
2023/03/14 00:32:57;;;;;;;7.85;1.52;;;11.00;99.90;;;10.29;100.00;99424.47;4150896;28;20033;-74
2023/03/14 00:34:57;;;;;;;8.02;1.30;;;11.00;99.90;;;10.25;100.00;99423.19;4152142;28;20401;-74
2023/03/14 00:36:58;;;;;;;11.32;1.20;;;11.00;99.90;;;10.33;100.00;99446.00;4149482;28;20026;-74
2023/03/14 00:38:59;;;;;;;7.88;1.70;;;11.00;99.90;;;10.38;100.00;99443.63;4150620;28;20034;-74
2023/03/14 00:41:04;;;;;;;6.25;1.48;;;11.10;99.90;;;10.30;100.00;99441.91;4152041;28;20025;-74
2023/03/14 00:43:05;;;;;;;7.82;1.58;;;11.10;99.90;;;10.42;100.00;99458.06;4151000;28;20038;-74
2023/03/14 00:45:08;;;;;;;8.13;1.00;;;11.20;99.90;;;10.31;100.00;99463.78;4150934;28;20022;-74
2023/03/14 00:47:09;;;;;;;6.97;1.25;;;11.10;99.90;;;10.30;100.00;99472.72;4150295;28;20021;-74
2023/03/14 00:49:10;;;;;;;4.70;1.58;;;11.10;99.90;;;10.32;100.00;99482.09;4140035;28;20114;-75
2023/03/14 00:51:13;;;;;;;5.57;0.77;;;11.10;99.90;;;10.36;100.00;99477.25;4151890;28;20053;-74
2023/03/14 00:53:15;;;;;;;5.23;1.30;;;11.10;99.90;;;10.21;100.00;99495.75;4151209;28;20517;-74
2023/03/14 00:55:16;;;;;;;3.80;0.73;;;11.10;99.90;;;10.09;100.00;99494.53;4153232;28;20034;-74
2023/03/14 00:57:16;;;;;;;5.45;0.93;;;10.90;99.90;;;10.05;100.00;99516.16;4148029;28;20030;-74
2023/03/14 00:59:17;;;;;;;5.13;1.00;;;10.90;99.90;;;10.02;100.00;99525.25;4145900;28;20045;-74
2023/03/14 01:01:19;;;;;;;3.65;0.70;;;10.90;99.90;;;10.03;100.00;99537.41;4141867;28;20058;-74
2023/03/14 01:03:19;;;;;;;3.25;0.75;;;10.80;99.90;;;10.14;100.00;99546.72;4153672;28;20091;-74
2023/03/14 01:05:22;;;;;;;6.18;0.75;;;10.90;99.90;;;10.08;100.00;99547.41;4154759;28;20034;-74
2023/03/14 01:07:24;;;;;;;3.63;1.77;;;10.80;99.90;;;10.09;100.00;99576.22;4154656;28;20460;-74
2023/03/14 01:09:25;;;;;;;6.00;1.33;;;10.90;99.90;;;10.17;100.00;99596.41;4153188;28;20022;-74
2023/03/14 01:11:33;;;;;;;3.25;0.77;;;10.90;99.90;;;10.17;100.00;99607.78;4153240;28;20030;-74
2023/03/14 01:13:34;;;;;;;3.53;0.60;;;10.90;99.90;;;9.96;100.00;99595.28;4154528;28;20056;-74
2023/03/14 01:15:37;;;;;;;2.97;0.73;;;10.90;99.90;;;10.10;100.00;99608.63;4153573;28;20037;-74
2023/03/14 01:17:39;;;;;;;5.55;1.58;;;10.80;99.90;;;10.00;100.00;99616.81;4125774;28;20630;-74
2023/03/14 01:19:40;;;;;;;4.80;0.70;;;10.80;99.90;;;9.87;100.00;99635.88;4141410;28;20037;-74
2023/03/14 01:21:41;;;;;;;4.20;1.13;;;10.80;99.90;;;9.82;100.00;99632.97;4153215;28;20063;-74
2023/03/14 01:23:43;;;;;;;6.70;1.00;;;10.70;99.90;;;9.88;100.00;99641.97;4152884;28;20494;-74
2023/03/14 01:25:44;;;;;;;6.10;0.85;;;10.70;99.90;;;9.72;100.00;99650.81;4153110;28;20026;-74
2023/03/14 01:27:45;;;;;;;4.13;1.08;;;10.60;99.90;;;9.66;100.00;99658.59;4143568;28;20077;-75
2023/03/14 01:29:47;;;;;;;3.08;0.70;;;10.60;99.90;;;9.72;100.00;99668.41;4144154;28;20367;-74
2023/03/14 01:31:47;;;;;;;4.68;1.40;;;10.50;99.90;;;9.52;100.00;99659.34;4154198;28;20029;-74
2023/03/14 01:33:48;;;;;;;6.65;0.93;;;10.40;99.90;;;9.53;100.00;99674.16;4154245;28;20065;-74
2023/03/14 01:35:52;;;;;;;3.10;1.40;;;10.40;99.90;;;9.53;100.00;99674.16;4154123;28;20038;-74
2023/03/14 01:37:53;;;;;;;8.32;1.67;;;10.30;99.90;;;9.46;100.00;99679.31;4152960;28;20492;-74
2023/03/14 01:39:54;;;;;;;5.45;1.63;;;10.30;99.90;;;9.36;100.00;99669.00;4169151;28;20033;-74
2023/03/14 01:41:55;;;;;;;5.35;1.30;;;10.30;99.90;;;9.36;100.00;99708.47;4154117;28;20033;-74
2023/03/14 01:43:55;;;;;;;4.38;0.80;;;10.20;99.90;;;9.35;100.00;99701.56;4153930;28;20068;-75
2023/03/14 01:46:05;;;;;;;5.82;1.05;;;10.20;99.90;;;9.34;100.00;99712.28;4154121;28;20029;-75
2023/03/14 01:48:06;;;;;;;4.78;0.77;;;10.10;99.90;;;9.18;100.00;99712.34;4154112;28;20405;-75
2023/03/14 01:50:11;;;;;;;4.18;1.00;;;10.10;99.90;;;9.21;100.00;99717.28;4152719;28;20025;-74
2023/03/14 01:52:24;;;;;;;5.22;0.85;;;10.10;99.90;;;9.15;100.00;99720.59;4153102;28;20033;-74
2023/03/14 01:54:35;;;;;;;5.05;0.88;;;10.00;99.90;;;9.06;100.00;99759.28;4152447;28;20044;-74
2023/03/14 01:56:38;;;;;;;4.45;0.93;;;9.90;99.90;;;9.09;100.00;99753.66;4150651;28;20034;-75
2023/03/14 01:58:43;;;;;;;5.63;1.77;;;9.90;99.90;;;8.95;100.00;99754.38;4152937;28;20036;-74
2023/03/14 02:00:44;;;;;;;6.75;1.48;;;9.80;99.90;;;8.81;100.00;99753.25;4153939;28;20113;-74
2023/03/14 02:02:53;;;;;;;7.57;1.50;;;9.70;99.90;;;8.80;100.00;99772.69;4152687;28;20389;-74
2023/03/14 02:04:56;;;;;;;5.65;1.25;;;9.70;99.90;;;8.80;100.00;99774.47;4167909;28;20540;-74
2023/03/14 02:07:18;;;;;;;7.95;1.95;;;9.70;99.90;;;8.83;100.00;99782.84;4147378;28;20022;-74
2023/03/14 02:09:21;;;;;;;6.15;1.45;;;9.60;99.90;;;8.81;100.00;99794.53;4133430;28;20536;-74
2023/03/14 02:11:26;;;;;;;9.43;2.50;;;9.60;99.90;;;8.74;100.00;99804.91;4151768;28;20038;-74
2023/03/14 02:13:27;;;;;;;9.32;1.52;;;9.60;99.90;;;8.68;100.00;99813.44;4152464;28;20049;-74
2023/03/14 02:15:29;;;;;;;10.18;1.58;;;9.60;99.90;;;8.57;100.00;99807.72;4152492;28;20094;-74
2023/03/14 02:17:30;;;;;;;6.82;0.85;;;9.50;99.90;;;8.45;100.00;99809.88;4142953;28;20034;-74
2023/03/14 02:19:46;;;;;;;8.65;1.70;;;9.40;99.90;;;8.41;100.00;99829.56;4150860;28;20405;-74
2023/03/14 02:22:12;;;;;;;8.48;2.42;;;9.30;99.90;;;8.38;100.00;99822.00;4142981;28;20489;-74
2023/03/14 02:24:33;;;;;;;23.05;2.83;;;9.30;99.90;;;8.37;100.00;99833.50;4149421;28;20042;-74
2023/03/14 02:26:45;;;;;;;7.97;1.30;;;9.20;99.90;;;8.33;100.00;99838.25;4151725;28;20037;-74
2023/03/14 02:28:46;;;;;;;9.20;1.70;;;9.20;99.90;;;8.36;100.00;99847.63;4146457;28;20030;-74
2023/03/14 02:30:47;;;;;;;7.20;1.50;;;9.20;99.90;;;8.47;100.00;99865.69;4150741;28;20021;-74
2023/03/14 02:32:57;;;;;;;10.98;1.77;;;9.20;99.90;;;8.43;100.00;99855.66;4152028;28;20113;-74
2023/03/14 02:35:05;;;;;;;8.02;1.98;;;9.30;99.90;;;8.49;100.00;99860.25;4152342;28;20434;-74
2023/03/14 02:37:06;;;;;;;13.48;1.83;;;9.30;99.90;;;8.56;100.00;99863.88;4146295;28;20394;-74
2023/03/14 02:39:24;;;;;;;9.70;1.90;;;9.40;99.90;;;8.66;100.00;99873.25;4152646;28;20078;-74
2023/03/14 02:41:25;;;;;;;11.50;2.25;;;9.50;99.90;;;8.72;100.00;99869.94;4152448;28;20037;-74
2023/03/14 02:43:26;;;;;;;10.45;2.63;;;9.50;99.90;;;8.77;100.00;99872.94;4153136;28;20030;-74
2023/03/14 02:45:41;;;;;;;12.02;2.00;;;9.50;99.90;;;8.75;100.00;99890.66;4153048;28;20113;-74
2023/03/14 02:48:02;;;;;;;8.70;2.00;;;9.60;99.90;;;8.84;100.00;99897.56;4151953;28;20029;-74
2023/03/14 02:50:15;;;;;;;10.50;2.17;;;9.60;99.90;;;8.84;100.00;99899.38;4152017;28;20038;-74
2023/03/14 02:52:16;;;;;;;15.73;2.58;;;9.70;99.90;;;8.86;100.00;99907.94;4152048;28;20026;-74
2023/03/14 02:54:20;;;;;;;9.90;2.00;;;9.70;99.90;;;8.80;100.00;99914.66;4152940;28;20040;-74
2023/03/14 02:56:21;;;;;;;12.35;1.88;;;9.70;99.90;;;8.67;100.00;99922.22;4151852;28;20026;-74
2023/03/14 02:58:22;;;;;;;13.93;2.42;;;9.70;99.90;;;8.84;100.00;99930.94;4151844;28;20033;-75
2023/03/14 03:00:23;;;;;;;10.95;2.60;;;9.60;99.90;;;8.61;100.00;99946.53;4153034;28;20493;-74
2023/03/14 03:02:24;;;;;;;11.95;2.33;;;9.50;99.90;;;8.53;100.00;99945.69;4151831;28;20030;-74
2023/03/14 03:04:25;;;;;;;13.38;2.15;;;9.50;99.90;;;8.50;100.00;99943.41;4168095;28;20093;-74
2023/03/14 03:06:26;;;;;;;11.23;2.30;;;9.40;99.90;;;8.32;100.00;99946.97;4152783;28;20025;-74
2023/03/14 03:08:28;;;;;;;18.00;1.98;;;9.30;99.90;;;8.42;100.00;99972.28;4147356;28;20045;-74
2023/03/14 03:10:30;;;;;;;13.18;2.10;;;9.30;99.90;;;8.29;100.00;99967.50;4151643;28;20018;-74
2023/03/14 03:12:30;;;;;;;9.40;2.42;;;9.20;99.90;;;8.32;100.00;99978.50;4151563;28;20028;-74
2023/03/14 03:14:31;;;;;;;12.60;3.25;;;9.20;99.90;;;8.35;100.00;99969.47;4151330;28;20038;-74
2023/03/14 03:16:32;;;;;;;12.52;2.42;;;9.20;99.90;;;8.29;100.00;99972.75;4154743;28;20036;-74
2023/03/14 03:18:33;;;;;;;11.65;2.38;;;9.20;99.90;;;8.15;100.00;99979.41;4126341;28;20512;-75
2023/03/14 03:20:34;;;;;;;15.18;2.88;;;9.10;99.90;;;8.08;100.00;99988.09;4145424;28;20053;-74
2023/03/14 03:22:36;;;;;;;13.88;2.47;;;9.00;99.90;;;8.00;100.00;99999.38;4149690;28;20486;-75
2023/03/14 03:24:37;;;;;;;9.43;2.58;;;8.90;99.90;;;7.89;100.00;100001.44;4151375;28;20068;-74
2023/03/14 03:26:38;;;;;;;8.73;1.40;;;8.80;99.90;;;7.85;100.00;100006.22;4167791;28;20029;-74
2023/03/14 03:28:39;;;;;;;10.40;1.83;;;8.70;99.90;;;7.85;100.00;100000.13;4151525;28;20022;-75
2023/03/14 03:30:41;;;;;;;13.57;2.28;;;8.70;99.90;;;7.72;100.00;100001.38;4167677;28;20033;-75
2023/03/14 03:32:42;;;;;;;12.23;2.13;;;8.60;99.90;;;7.69;100.00;100008.72;4150648;28;20018;-74
2023/03/14 03:34:43;;;;;;;11.07;2.08;;;8.60;99.90;;;7.72;100.00;100021.53;4143206;28;20041;-75
2023/03/14 03:36:44;;;;;;;10.23;2.10;;;8.60;99.90;;;7.61;100.00;100020.03;4150518;28;20033;-75
2023/03/14 03:38:44;;;;;;;15.02;3.42;;;8.50;99.90;;;7.50;100.00;100030.75;4147929;28;20124;-75
2023/03/14 03:40:45;;;;;;;10.27;1.88;;;8.50;99.90;;;7.49;100.00;100031.75;4139425;28;20033;-75
2023/03/14 03:42:47;;;;;;;17.33;3.90;;;8.40;99.90;;;7.64;100.00;100035.47;4151192;28;20489;-74
2023/03/14 03:44:48;;;;;;;11.98;2.45;;;8.50;99.90;;;7.64;100.00;100045.13;4151204;28;20022;-74
2023/03/14 03:46:49;;;;;;;9.30;2.10;;;8.50;99.90;;;7.63;100.00;100046.09;4152504;28;20022;-75
2023/03/14 03:48:59;;;;;;;18.15;2.88;;;8.50;99.90;;;7.67;100.00;100045.66;4152424;28;20478;-74
2023/03/14 03:51:00;;;;;;;15.35;3.38;;;8.50;99.90;;;7.75;100.00;100044.88;4152603;28;20400;-75
2023/03/14 03:53:00;;;;;;;14.00;2.53;;;8.60;99.90;;;7.67;100.00;100052.69;4151140;28;20057;-74
2023/03/14 03:55:01;;;;;;;15.88;2.67;;;8.60;99.90;;;7.65;100.00;100063.34;4152243;28;20034;-74
2023/03/14 03:57:02;;;;;;;15.27;2.80;;;8.50;99.90;;;7.60;100.00;100047.22;4150966;28;20029;-74
2023/03/14 03:59:03;;;;;;;13.65;2.38;;;8.50;99.90;;;7.70;100.00;100058.47;4167492;28;20079;-74
2023/03/14 04:01:09;;;;;;;17.63;2.80;;;8.50;99.90;;;7.62;100.00;100068.88;4152432;28;20076;-74
2023/03/14 04:03:10;;;;;;;13.73;2.63;;;8.50;99.90;;;7.62;100.00;100066.25;4150955;28;20034;-74
2023/03/14 04:05:11;;;;;;;13.27;2.78;;;8.50;99.90;;;7.59;100.00;100078.88;4152697;28;20022;-74
2023/03/14 04:07:13;;;;;;;11.48;2.40;;;8.40;99.90;;;7.53;100.00;100079.47;4134743;28;20537;-75
2023/03/14 04:09:14;;;;;;;12.48;2.70;;;8.40;99.90;;;7.47;100.00;100085.34;4150839;28;20358;-75
2023/03/14 04:11:15;;;;;;;14.63;3.08;;;8.40;99.90;;;7.56;100.00;100085.25;4148196;28;20025;-74
2023/03/14 04:13:16;;;;;;;10.40;2.88;;;8.40;99.90;;;7.54;100.00;100087.22;4139931;28;20387;-75
2023/03/14 04:15:17;;;;;;;18.85;2.92;;;8.40;99.90;;;7.51;100.00;100087.50;4151224;28;20068;-75
2023/03/14 04:17:18;;;;;;;18.13;2.90;;;8.40;99.90;;;7.49;100.00;100102.59;4167432;28;20052;-74
2023/03/14 04:19:20;;;;;;;15.63;2.33;;;8.40;99.90;;;7.44;100.00;100104.84;4152084;28;20030;-75
2023/03/14 04:21:20;;;;;;;15.95;2.85;;;8.40;99.90;;;7.66;100.00;100116.66;4151080;28;20033;-75
2023/03/14 04:23:24;;;;;;;13.45;2.55;;;8.50;99.90;;;7.68;100.00;100107.66;4150638;28;20033;-74
2023/03/14 04:25:24;;;;;;;15.77;2.45;;;8.50;99.90;;;7.62;100.00;100112.69;4150817;28;20417;-74
2023/03/14 04:27:25;;;;;;;14.23;2.38;;;8.50;99.90;;;7.54;100.00;100117.88;4164908;28;20033;-74
2023/03/14 04:29:26;;;;;;;15.48;3.05;;;8.50;99.90;;;7.57;100.00;100133.31;4153503;28;20022;-74
2023/03/14 04:31:27;;;;;;;15.20;3.08;;;8.40;99.90;;;7.60;100.00;100135.63;4155151;28;20492;-74
2023/03/14 04:33:28;;;;;;;11.45;1.88;;;8.40;99.90;;;7.63;100.00;100148.47;4153824;28;20416;-74
2023/03/14 04:35:31;;;;;;;17.48;2.78;;;8.50;99.90;;;7.74;100.00;100156.91;4151286;28;20085;-75
2023/03/14 04:37:32;;;;;;;10.73;2.13;;;8.50;99.90;;;7.71;100.00;100170.34;4146490;28;20531;-75
2023/03/14 04:39:33;;;;;;;15.75;3.30;;;8.60;99.90;;;7.77;100.00;100172.38;4170022;28;20033;-75
2023/03/14 04:41:34;;;;;;;17.48;2.58;;;8.60;99.90;;;7.80;100.00;100171.22;4137612;28;20061;-75
2023/03/14 04:43:35;;;;;;;11.48;2.63;;;8.60;99.90;;;7.77;100.00;100174.16;4153735;28;20469;-74
2023/03/14 04:45:36;;;;;;;15.95;2.30;;;8.60;99.90;;;7.60;100.00;100181.09;4154161;28;20108;-74
2023/03/14 04:47:36;;;;;;;13.07;2.20;;;8.60;99.90;;;7.60;100.00;100188.97;4152512;28;20513;-74
2023/03/14 04:49:37;;;;;;;14.55;2.63;;;8.50;99.90;;;7.34;100.00;100198.56;4153749;28;20026;-74
2023/03/14 04:51:38;;;;;;;10.13;1.67;;;8.40;99.90;;;7.32;100.00;100203.09;4170033;28;20504;-74
2023/03/14 04:53:39;;;;;;;13.35;2.17;;;8.30;99.90;;;7.27;100.00;100213.22;4154748;28;20117;-74
2023/03/14 04:55:40;;;;;;;6.60;2.00;;;8.20;99.90;;;7.28;100.00;100211.44;4153832;28;20026;-74
2023/03/14 04:57:41;;;;;;;18.73;4.00;;;8.10;99.90;;;7.19;100.00;100221.03;4154813;28;20370;-74
2023/03/14 04:59:42;;;;;;;14.25;2.13;;;8.10;99.90;;;7.19;100.00;100221.84;4154842;28;20111;-74
2023/03/14 05:01:43;;;;;;;7.95;2.22;;;8.10;99.90;;;7.06;100.00;100223.16;4154740;28;20034;-75
2023/03/14 05:03:44;;;;;;;10.43;2.20;;;8.00;99.90;;;7.15;100.00;100235.38;4170118;28;20037;-75
2023/03/14 05:05:46;;;;;;;15.32;2.72;;;8.00;99.90;;;7.01;100.00;100226.22;4153485;28;20017;-74
2023/03/14 05:07:47;;;;;;;10.85;2.03;;;7.90;99.90;;;7.08;100.00;100239.56;4154597;28;20029;-74
2023/03/14 05:09:48;;;;;;;17.88;3.50;;;7.90;99.90;;;7.01;100.00;100241.13;4153118;28;20022;-74
2023/03/14 05:11:48;;;;;;;15.15;2.47;;;7.90;99.90;;;6.94;100.00;100242.66;4154722;28;20026;-74
2023/03/14 05:13:49;;;;;;;14.30;2.85;;;7.80;99.90;;;6.78;100.00;100239.84;4153574;28;20042;-74
2023/03/14 05:15:50;;;;;;;11.55;2.30;;;7.80;99.90;;;6.76;100.00;100254.88;4154582;28;20445;-74
2023/03/14 05:17:52;;;;;;;14.52;3.13;;;7.70;99.90;;;6.84;100.00;100262.88;4144852;28;20026;-74
2023/03/14 05:19:53;;;;;;;13.63;3.03;;;7.60;99.90;;;6.73;100.00;100249.91;4143666;28;20033;-74
2023/03/14 05:21:54;;;;;;;9.10;2.03;;;7.70;99.90;;;6.83;100.00;100258.59;4153305;28;20026;-74
2023/03/14 05:23:55;;;;;;;15.70;2.00;;;7.70;99.90;;;6.71;100.00;100262.34;4154365;28;20084;-74
2023/03/14 05:25:56;;;;;;;15.25;2.78;;;7.60;99.90;;;6.78;100.00;100273.94;4154251;28;20022;-74
2023/03/14 05:27:57;;;;;;;10.57;2.42;;;7.60;99.90;;;6.66;100.00;100274.09;4153390;28;20026;-75
2023/03/14 05:29:58;;;;;;;11.35;2.03;;;7.60;99.90;;;6.57;100.00;100288.03;4169622;28;20044;-74
2023/03/14 05:31:58;;;;;;;13.50;2.50;;;7.50;99.90;;;6.65;100.00;100277.69;4154200;28;20029;-74
2023/03/14 05:33:59;;;;;;;13.13;2.55;;;7.50;99.90;;;6.62;100.00;100288.47;4152955;28;20017;-74
2023/03/14 05:36:00;;;;;;;16.02;3.17;;;7.50;99.90;;;6.54;100.00;100298.78;4154359;28;20030;-74
2023/03/14 05:38:01;;;;;;;11.73;2.42;;;7.50;99.90;;;6.52;100.00;100298.13;4152932;28;20033;-74
2023/03/14 05:40:03;;;;;;;15.57;3.00;;;7.40;99.90;;;6.40;100.00;100299.25;4151558;28;20044;-74
2023/03/14 05:42:04;;;;;;;24.35;3.92;;;7.40;99.90;;;6.42;100.00;100294.69;4154199;28;20038;-75
2023/03/14 05:44:05;;;;;;;14.35;3.17;;;7.40;99.90;;;6.45;100.00;100309.31;4152981;28;20508;-74
2023/03/14 05:46:06;;;;;;;19.52;2.88;;;7.30;99.90;;;6.34;100.00;100319.94;4153285;28;20464;-74
2023/03/14 05:48:07;;;;;;;17.98;2.92;;;7.30;99.90;;;6.26;100.00;100320.63;4153365;28;20396;-75
2023/03/14 05:50:08;;;;;;;24.13;3.15;;;7.30;99.90;;;6.29;100.00;100322.16;4152860;28;20034;-74
2023/03/14 05:52:09;;;;;;;15.77;4.03;;;7.20;99.90;;;6.41;100.00;100339.38;4152940;28;20453;-74
2023/03/14 05:54:10;;;;;;;13.70;2.72;;;7.20;99.90;;;6.34;100.00;100331.22;4136170;28;20054;-75
2023/03/14 05:56:11;;;;;;;15.98;2.75;;;7.20;99.90;;;6.28;100.00;100338.81;4152857;28;20094;-74
2023/03/14 05:58:12;;;;;;;11.13;2.28;;;7.20;99.90;;;6.22;100.00;100350.66;4140795;28;20034;-75
2023/03/14 06:00:13;;;;;;;16.02;3.47;;;7.10;99.90;;;6.14;100.00;100350.53;4152591;28;20026;-75
2023/03/14 06:02:14;;;;;;;16.70;2.08;;;7.10;99.90;;;6.10;100.00;100360.47;4144530;28;20738;-74
2023/03/14 06:04:15;;;;;;;18.65;2.63;;;7.00;99.90;;;6.05;100.00;100352.19;4153965;28;20033;-74
2023/03/14 06:06:16;;;;;;;13.35;2.88;;;7.00;99.90;;;6.14;100.00;100374.09;4152628;28;20154;-75
2023/03/14 06:08:17;;;;;;;17.63;2.67;;;7.00;99.90;;;6.18;100.00;100370.25;4153061;28;20033;-75
2023/03/14 06:10:18;;;;;;;12.93;2.85;;;7.00;99.90;;;6.12;100.00;100376.03;4152416;28;20033;-75
2023/03/14 06:12:19;;;;;;;18.27;3.67;;;7.10;99.90;;;6.08;100.00;100382.50;4153446;28;20490;-74
2023/03/14 06:14:20;;;;;;;14.50;2.42;;;7.00;99.90;;;6.05;100.00;100381.00;4153428;28;20058;-74
2023/03/14 06:16:21;;;;;;;17.83;3.92;;;7.00;99.90;;;6.01;100.00;100392.69;4152647;28;20022;-74
2023/03/14 06:18:21;;;;;;;18.33;4.05;;;7.00;99.90;;;5.98;100.00;100381.66;4152186;28;20413;-75
2023/03/14 06:20:22;;;;;;;20.08;4.53;;;6.90;99.90;;;6.00;100.00;100390.22;4152290;28;20029;-77
2023/03/14 06:22:23;;;;;;;20.23;3.20;;;6.90;99.90;;;6.04;100.00;100392.41;4148404;28;20515;-76
2023/03/14 06:24:24;;;;;;;19.20;3.38;;;6.90;99.90;;;5.97;100.00;100396.53;4153016;28;20026;-76
2023/03/14 06:26:25;;;;;;;17.52;2.90;;;6.90;99.90;;;6.00;100.00;100390.22;4153608;28;20585;-76
2023/03/14 06:28:26;;;;;;;22.05;6.13;;;6.90;99.90;;;6.15;100.00;100406.38;4148026;28;20033;-77
2023/03/14 06:30:27;;;;;;;13.98;3.10;;;7.00;99.90;;;6.03;100.00;100409.09;4153107;28;20100;-77
2023/03/14 06:32:28;;;;;;;15.25;3.00;;;7.00;99.90;;;5.98;100.00;100403.44;4152631;28;20022;-77
2023/03/14 06:34:29;;;;;;;16.77;2.92;;;6.90;99.90;;;6.17;100.00;100417.53;4157789;28;20064;-77
2023/03/14 06:36:30;;;;;;;14.15;3.63;;;7.00;99.90;;;6.09;100.00;100416.41;4153378;28;20022;-77
2023/03/14 06:38:31;;;;;;;17.70;4.03;;;7.00;99.90;;;6.28;100.00;100420.84;4152946;28;20041;-77
2023/03/14 06:40:32;;;;;;;17.17;2.63;;;7.10;99.90;;;6.28;100.00;100431.31;4151995;28;20030;-77
2023/03/14 06:42:33;;;;;;;12.43;2.17;;;7.10;99.90;;;6.39;100.00;100431.19;4168492;28;20033;-77
2023/03/14 06:44:34;;;;;;;20.65;3.17;;;7.20;99.90;;;6.49;100.00;100437.28;4153259;28;20452;-77
2023/03/14 06:46:35;;;;;;;21.85;3.05;;;7.30;99.90;;;6.58;100.00;100433.81;4168243;28;20092;-77
2023/03/14 06:48:36;;;;;;;16.27;2.55;;;7.40;99.90;;;6.59;100.00;100429.41;4152965;28;20412;-77
2023/03/14 06:50:36;;;;;;;11.00;1.85;;;7.40;99.90;;;6.60;100.00;100439.75;4168280;28;20061;-77
2023/03/14 06:52:40;;;;;;;22.83;3.17;;;7.50;99.90;;;6.55;100.00;100449.81;4151816;28;20381;-77
2023/03/14 06:54:41;;;;;;;14.90;2.70;;;7.50;99.90;;;6.60;100.00;100457.28;4152846;28;20156;-77
2023/03/14 06:56:42;;;;;;;14.82;2.97;;;7.50;99.90;;;6.60;100.00;100452.84;4152854;28;20030;-77
2023/03/14 06:58:44;;;;;;;13.48;2.92;;;7.50;99.90;;;6.55;100.00;100447.19;4151810;28;20046;-77
2023/03/14 07:00:45;;;;;;;12.85;2.67;;;7.50;99.90;;;6.56;100.00;100461.97;4151783;28;20089;-77
2023/03/14 07:02:46;;;;;;;13.00;3.58;;;7.50;99.90;;;6.47;100.00;100462.78;4141964;28;20101;-77
2023/03/14 07:04:47;;;;;;;15.43;3.38;;;7.40;99.90;;;6.50;100.00;100470.38;4165749;28;20040;-77
2023/03/14 07:06:48;;;;;;;15.73;3.03;;;7.40;99.90;;;6.49;100.00;100471.34;4152868;28;20474;-77
2023/03/14 07:08:49;;;;;;;17.13;3.63;;;7.40;99.90;;;6.41;100.00;100479.06;4152409;28;20025;-77
2023/03/14 07:10:50;;;;;;;21.17;3.20;;;7.40;99.90;;;6.43;100.00;100479.72;4151892;28;20452;-77
2023/03/14 07:12:52;;;;;;;13.38;3.55;;;7.30;99.90;;;6.37;100.00;100487.31;4151417;28;20022;-77
2023/03/14 07:14:53;;;;;;;16.05;2.95;;;7.30;99.90;;;6.43;100.00;100484.97;4152676;28;20054;-77
2023/03/14 07:16:54;;;;;;;14.30;3.05;;;7.30;99.90;;;6.44;100.00;100484.03;4152446;28;20493;-77
2023/03/14 07:18:55;;;;;;;16.73;3.20;;;7.30;99.90;;;6.41;100.00;100501.78;4152653;28;20026;-77
2023/03/14 07:20:55;;;;;;;17.45;2.40;;;7.30;99.90;;;6.42;100.00;100500.84;4151390;28;20028;-77
2023/03/14 07:22:56;;;;;;;11.90;2.65;;;7.30;99.90;;;6.43;100.00;100505.09;4151410;28;20102;-77
2023/03/14 07:24:57;;;;;;;19.27;3.10;;;7.30;99.90;;;6.36;100.00;100504.81;4151308;28;20029;-77
2023/03/14 07:26:58;;;;;;;18.15;3.40;;;7.30;99.90;;;6.37;100.00;100522.19;4140286;28;20406;-77
2023/03/14 07:28:59;;;;;;;19.25;2.60;;;7.30;99.90;;;6.44;100.00;100525.09;4149305;28;20044;-77
2023/03/14 07:31:00;;;;;;;15.43;3.13;;;7.40;99.90;;;6.43;100.00;100526.06;4151341;28;20029;-77
2023/03/14 07:33:01;;;;;;;15.23;2.30;;;7.40;99.90;;;6.52;100.00;100539.19;4135099;28;20037;-77
2023/03/14 07:35:02;;;;;;;12.80;2.42;;;7.40;99.90;;;6.47;100.00;100537.94;4144441;28;20386;-75
2023/03/14 07:37:04;;;;;;;15.02;2.75;;;7.40;99.90;;;6.51;100.00;100542.75;4145195;28;20080;-73
2023/03/14 07:39:05;;;;;;;16.98;3.03;;;7.50;99.90;;;6.62;100.00;100555.78;4137566;28;20033;-76
2023/03/14 07:41:07;;;;;;;15.10;3.42;;;7.50;99.90;;;6.69;100.00;100551.63;4142153;28;20045;-76
2023/03/14 07:43:08;;;;;;;11.68;2.72;;;7.60;99.90;;;6.82;100.00;100558.41;4152348;28;20038;-76
2023/03/14 07:45:10;;;;;;;14.23;2.78;;;7.70;99.90;;;6.90;100.00;100571.69;4151435;28;20041;-76
2023/03/14 07:47:11;;;;;;;12.05;3.42;;;7.80;99.90;;;6.97;100.00;100576.22;4146562;28;20049;-77
2023/03/14 07:49:11;;;;;;;12.13;2.35;;;7.80;99.90;;;7.06;100.00;100579.81;4140863;28;20030;-76
2023/03/14 07:51:12;;;;;;;7.80;2.15;;;7.90;99.90;;;7.18;100.00;100582.19;4145088;28;20528;-76
2023/03/14 07:53:13;;;;;;;15.20;2.90;;;8.00;99.90;;;7.18;100.00;100587.41;4150908;28;20425;-76
2023/03/14 07:55:14;;;;;;;9.50;2.33;;;8.10;99.90;;;7.33;100.00;100597.50;4167391;28;20033;-76
2023/03/14 07:57:16;;;;;;;9.50;2.75;;;8.20;99.90;;;7.44;100.00;100597.34;4150336;28;20109;-76
2023/03/14 07:59:17;;;;;;;14.38;2.67;;;8.30;99.90;;;7.61;100.00;100592.22;4151225;28;20033;-77
2023/03/14 08:01:18;;;;;;;10.02;2.22;;;8.50;99.90;;;7.93;99.99;100591.03;4151338;28;20513;-77
2023/03/14 08:03:19;;;;;;;9.93;2.75;;;8.70;99.90;;;8.20;97.45;100588.47;4151963;28;20026;-76
2023/03/14 08:05:20;;;;;;;13.20;2.38;;;8.90;99.90;;;8.26;96.37;100588.72;4154520;28;20033;-76
2023/03/14 08:07:21;;;;;;;14.00;2.75;;;9.10;99.90;;;8.23;96.53;100598.69;4170643;28;20033;-76
2023/03/14 08:09:22;;;;;;;13.38;2.92;;;9.20;99.90;;;8.28;94.66;100607.81;4155046;28;20033;-77
2023/03/14 08:11:23;;;;;;;8.23;2.10;;;9.20;99.90;;;8.09;95.24;100610.50;4138133;28;20445;-77
2023/03/14 08:13:25;;;;;;;13.05;2.90;;;9.20;99.90;;;7.97;96.57;100611.63;4155253;28;20050;-76
2023/03/14 08:15:29;;;;;;;11.35;2.20;;;9.00;99.90;;;7.75;95.83;100620.66;4154621;28;20065;-76
2023/03/14 08:17:29;;;;;;;10.52;2.20;;;8.90;99.90;;;7.66;96.74;100621.50;4147305;28;20026;-76
2023/03/14 08:19:30;;;;;;;10.02;2.35;;;8.70;99.90;;;7.59;96.61;100623.03;4154179;28;20061;-76
2023/03/14 08:21:31;;;;;;;12.13;2.53;;;8.60;99.90;;;7.64;96.37;100618.19;4170645;28;20103;-77
2023/03/14 08:23:32;;;;;;;10.68;1.63;;;8.60;99.90;;;7.67;97.46;100631.06;4153980;28;20030;-76
2023/03/14 08:25:33;;;;;;;12.02;2.95;;;8.60;99.90;;;7.77;96.87;100631.84;4170570;28;20104;-76
2023/03/14 08:27:37;;;;;;;11.15;1.85;;;8.60;99.90;;;7.73;96.41;100632.28;4153889;28;20525;-76
2023/03/14 08:29:38;;;;;;;11.55;2.33;;;8.70;99.90;;;7.70;96.58;100628.16;4170383;28;20136;-76